createdAt,value
2017-01-10T00:00:59.292Z,73.84
2017-01-10T00:01:59.302Z,73.75
2017-01-10T00:02:59.318Z,73.75
2017-01-10T00:03:59.325Z,73.56
2017-01-10T00:04:59.335Z,73.84
2017-01-10T00:05:59.346Z,73.56
2017-01-10T00:06:59.383Z,73.18
2017-01-10T00:07:59.374Z,73.84
2017-01-10T00:08:59.379Z,73.65
2017-01-10T00:09:59.392Z,73.56
2017-01-10T00:10:59.404Z,73.56
2017-01-10T00:11:59.411Z,73.65
2017-01-10T00:12:59.422Z,73.94
2017-01-10T00:13:59.433Z,73.84
2017-01-10T00:14:59.450Z,74.22
2017-01-10T00:15:59.454Z,74.32
2017-01-10T00:16:59.467Z,74.41
2017-01-10T00:17:59.474Z,73.84
2017-01-10T00:18:59.485Z,73.65
2017-01-10T00:19:59.493Z,74.32
2017-01-10T00:20:59.508Z,73.84
2017-01-10T00:21:59.515Z,74.03
2017-01-10T00:22:59.526Z,74.03
2017-01-10T00:23:59.536Z,73.46
2017-01-10T00:24:59.547Z,74.22
2017-01-10T00:25:59.556Z,73.84
2017-01-10T00:26:59.569Z,73.75
2017-01-10T00:27:59.579Z,73.56
2017-01-10T00:28:59.588Z,73.84
2017-01-10T00:29:59.601Z,73.94
2017-01-10T00:30:59.614Z,73.75
2017-01-10T00:31:59.620Z,73.94
2017-01-10T00:32:59.632Z,73.65
2017-01-10T00:33:59.641Z,73.75
2017-01-10T00:34:59.654Z,73.75
2017-01-10T00:35:59.664Z,73.56
2017-01-10T00:36:59.673Z,73.94
2017-01-10T00:37:59.683Z,73.94
2017-01-10T00:38:59.694Z,73.56
2017-01-10T00:39:59.703Z,73.65
2017-01-10T00:40:59.719Z,73.18
2017-01-10T00:41:59.725Z,73.37
2017-01-10T00:42:59.735Z,73.37
2017-01-10T00:43:59.753Z,73.37
2017-01-10T00:44:59.761Z,73.56
2017-01-10T00:45:59.774Z,73.56
2017-01-10T00:46:59.781Z,73.56
2017-01-10T00:47:59.789Z,73.84
2017-01-10T00:48:59.808Z,73.94
2017-01-10T00:49:59.814Z,73.65
2017-01-10T00:50:59.823Z,74.03
2017-01-10T00:51:59.834Z,73.94
2017-01-10T00:52:59.845Z,73.75
2017-01-10T00:53:59.856Z,73.75
2017-01-10T00:54:59.862Z,73.37
2017-01-10T00:55:59.898Z,73.37
2017-01-10T00:56:59.887Z,73.27
2017-01-10T00:57:59.900Z,73.27
2017-01-10T00:58:59.905Z,73.37
2017-01-10T00:59:59.917Z,73.37
2017-01-10T01:00:59.925Z,73.18
2017-01-10T01:01:59.936Z,73.65
2017-01-10T01:02:59.948Z,73.65
2017-01-10T01:03:59.960Z,73.75
2017-01-10T01:04:59.969Z,73.75
2017-01-10T01:05:59.980Z,73.84
2017-01-10T01:06:59.991Z,73.94
2017-01-10T01:08:00.001Z,73.65
2017-01-10T01:09:00.011Z,73.37
2017-01-10T01:10:00.020Z,73.37
2017-01-10T01:11:00.033Z,73.18
2017-01-10T01:12:00.044Z,73.46
2017-01-10T01:13:00.054Z,73.46
2017-01-10T01:14:00.066Z,73.75
2017-01-10T01:15:00.077Z,73.65
2017-01-10T01:16:00.092Z,73.27
2017-01-10T01:17:00.129Z,73.37
2017-01-10T01:18:00.107Z,73.27
2017-01-10T01:19:00.118Z,73.75
2017-01-10T01:20:06.402Z,73.27
2017-01-10T01:21:00.143Z,73.46
2017-01-10T01:22:00.150Z,73.56
2017-01-10T01:23:00.163Z,73.27
2017-01-10T01:24:00.202Z,73.27
2017-01-10T01:25:00.187Z,73.27
2017-01-10T01:26:00.193Z,73.27
2017-01-10T01:27:00.204Z,73.27
2017-01-10T01:28:00.213Z,73.46
2017-01-10T01:29:00.224Z,73.56
2017-01-10T01:30:00.242Z,73.37
2017-01-10T01:31:00.245Z,73.84
2017-01-10T01:32:00.257Z,73.37
2017-01-10T01:33:00.271Z,73.37
2017-01-10T01:34:00.275Z,73.37
2017-01-10T01:35:00.288Z,73.37
2017-01-10T01:36:00.296Z,73.46
2017-01-10T01:37:00.312Z,73.37
2017-01-10T01:38:00.323Z,73.37
2017-01-10T01:39:00.329Z,73.18
2017-01-10T01:40:00.338Z,73.56
2017-01-10T01:41:00.353Z,73.65
2017-01-10T01:42:00.364Z,73.56
2017-01-10T01:43:00.371Z,73.37
2017-01-10T01:44:00.386Z,73.46
2017-01-10T01:45:00.393Z,73.56
2017-01-10T01:46:00.415Z,73.65
2017-01-10T01:47:00.418Z,73.65
2017-01-10T01:48:00.428Z,73.65
2017-01-10T01:49:00.436Z,73.65
2017-01-10T01:50:00.448Z,73.65
2017-01-10T01:51:00.457Z,73.65
2017-01-10T01:52:00.475Z,73.18
2017-01-10T01:53:00.480Z,73.84
2017-01-10T01:54:00.493Z,73.27
2017-01-10T01:55:00.501Z,73.37
2017-01-10T01:56:00.512Z,73.75
2017-01-10T01:57:00.524Z,73.65
2017-01-10T01:58:00.537Z,73.94
2017-01-10T01:59:00.543Z,73.56
2017-01-10T02:00:00.554Z,73.46
2017-01-10T02:01:00.562Z,73.46
2017-01-10T02:02:00.581Z,73.56
2017-01-10T02:03:00.582Z,73.56
2017-01-10T02:04:00.594Z,73.46
2017-01-10T02:05:00.605Z,73.37
2017-01-10T02:06:00.626Z,73.65
2017-01-10T02:07:00.626Z,73.65
2017-01-10T02:08:00.635Z,73.56
2017-01-10T02:09:00.648Z,73.37
2017-01-10T02:10:00.659Z,73.84
2017-01-10T02:11:00.667Z,73.65
2017-01-10T02:12:00.678Z,73.37
2017-01-10T02:13:00.689Z,73.56
2017-01-10T02:14:00.746Z,73.37
2017-01-10T02:15:00.707Z,73.65
2017-01-10T02:16:00.724Z,73.46
2017-01-10T02:17:00.735Z,73.18
2017-01-10T02:18:00.741Z,73.18
2017-01-10T02:19:00.824Z,73.37
2017-01-10T02:20:00.838Z,73.18
2017-01-10T02:21:01.037Z,73.18
2017-01-10T02:22:00.795Z,73.65
2017-01-10T02:23:00.796Z,73.65
2017-01-10T02:24:00.803Z,73.46
2017-01-10T02:25:00.832Z,73.56
2017-01-10T02:26:00.833Z,73.56
2017-01-10T02:27:00.835Z,73.65
2017-01-10T02:28:00.859Z,73.56
2017-01-10T02:29:00.856Z,73.75
2017-01-10T02:30:00.876Z,73.37
2017-01-10T02:31:00.879Z,73.46
2017-01-10T02:32:00.886Z,73.75
2017-01-10T02:33:00.912Z,73.37
2017-01-10T02:34:00.908Z,73.18
2017-01-10T02:35:00.918Z,72.8
2017-01-10T02:36:00.938Z,73.18
2017-01-10T02:37:00.976Z,72.61
2017-01-10T02:38:00.956Z,73.46
2017-01-10T02:39:00.963Z,73.18
2017-01-10T02:40:00.974Z,72.8
2017-01-10T02:41:00.984Z,73.18
2017-01-10T02:42:01.001Z,72.8
2017-01-10T02:43:01.001Z,72.52
2017-01-10T02:44:01.018Z,72.99
2017-01-10T02:45:01.021Z,72.99
2017-01-10T02:46:01.046Z,72.99
2017-01-10T02:47:01.048Z,72.99
2017-01-10T02:48:01.057Z,73.46
2017-01-10T02:49:01.077Z,72.89
2017-01-10T02:50:01.092Z,72.8
2017-01-10T02:51:01.089Z,73.08
2017-01-10T02:52:01.099Z,73.18
2017-01-10T02:53:01.107Z,73.18
2017-01-10T02:54:01.126Z,72.99
2017-01-10T02:55:01.128Z,73.37
2017-01-10T02:56:01.145Z,73.27
2017-01-10T02:57:01.149Z,73.27
2017-01-10T02:58:01.160Z,73.46
2017-01-10T02:59:01.173Z,73.37
2017-01-10T03:00:01.187Z,73.56
2017-01-10T03:01:01.585Z,73.18
2017-01-10T03:02:01.201Z,73.46
2017-01-10T03:03:01.209Z,73.65
2017-01-10T03:04:01.228Z,73.46
2017-01-10T03:05:01.237Z,73.65
2017-01-10T03:06:01.249Z,72.99
2017-01-10T03:07:01.253Z,73.37
2017-01-10T03:08:01.276Z,73.56
2017-01-10T03:09:01.275Z,73.46
2017-01-10T03:10:01.284Z,73.46
2017-01-10T03:11:01.302Z,73.56
2017-01-10T03:12:01.305Z,73.75
2017-01-10T03:13:01.316Z,73.37
2017-01-10T03:14:01.359Z,73.27
2017-01-10T03:15:01.337Z,73.94
2017-01-10T03:16:01.351Z,73.46
2017-01-10T03:17:01.358Z,73.18
2017-01-10T03:18:01.370Z,73.37
2017-01-10T03:19:01.380Z,73.18
2017-01-10T03:20:01.393Z,73.37
2017-01-10T03:21:01.401Z,73.56
2017-01-10T03:22:01.419Z,72.89
2017-01-10T03:23:01.421Z,74.03
2017-01-10T03:24:01.435Z,73.18
2017-01-10T03:25:01.444Z,73.65
2017-01-10T03:26:01.454Z,73.56
2017-01-10T03:27:01.459Z,73.46
2017-01-10T03:28:01.474Z,73.27
2017-01-10T03:29:01.487Z,73.84
2017-01-10T03:30:01.494Z,73.46
2017-01-10T03:31:01.505Z,73.46
2017-01-10T03:32:01.518Z,73.65
2017-01-10T03:33:01.529Z,73.37
2017-01-10T03:34:01.535Z,73.75
2017-01-10T03:35:01.550Z,73.75
2017-01-10T03:36:01.561Z,73.46
2017-01-10T03:37:01.567Z,73.18
2017-01-10T03:38:01.580Z,73.08
2017-01-10T03:39:01.586Z,73.65
2017-01-10T03:40:01.599Z,73.56
2017-01-10T03:41:01.608Z,73.46
2017-01-10T03:42:01.620Z,73.75
2017-01-10T03:43:01.628Z,73.37
2017-01-10T03:44:01.641Z,73.37
2017-01-10T03:45:01.652Z,73.56
2017-01-10T03:46:01.665Z,73.56
2017-01-10T03:47:01.675Z,73.56
2017-01-10T03:48:01.685Z,73.56
2017-01-10T03:49:01.693Z,73.27
2017-01-10T03:50:01.704Z,73.08
2017-01-10T03:51:01.717Z,73.18
2017-01-10T03:52:01.723Z,72.8
2017-01-10T03:53:01.734Z,72.89
2017-01-10T03:54:01.747Z,73.08
2017-01-10T03:55:01.756Z,72.89
2017-01-10T03:56:01.768Z,72.61
2017-01-10T03:57:01.781Z,73.56
2017-01-10T03:58:01.788Z,73.27
2017-01-10T03:59:01.800Z,73.18
2017-01-10T04:00:01.808Z,73.65
2017-01-10T04:01:01.817Z,73.56
2017-01-10T04:02:01.827Z,73.46
2017-01-10T04:03:01.840Z,73.37
2017-01-10T04:04:01.853Z,73.37
2017-01-10T04:05:01.856Z,73.56
2017-01-10T04:06:01.866Z,73.18
2017-01-10T04:07:01.880Z,73.46
2017-01-10T04:08:01.891Z,72.99
2017-01-10T04:09:01.899Z,73.46
2017-01-10T04:10:01.911Z,72.99
2017-01-10T04:11:01.920Z,72.99
2017-01-10T04:12:01.931Z,73.18
2017-01-10T04:13:01.941Z,72.8
2017-01-10T04:14:01.949Z,73.18
2017-01-10T04:15:02.360Z,73.37
2017-01-10T04:16:01.973Z,72.89
2017-01-10T04:17:01.981Z,73.18
2017-01-10T04:18:01.995Z,73.27
2017-01-10T04:19:02.002Z,72.89
2017-01-10T04:20:02.011Z,73.24
2017-01-10T04:21:02.029Z,72.99
2017-01-10T04:22:02.036Z,73.18
2017-01-10T04:23:02.045Z,73.27
2017-01-10T04:24:02.056Z,73.08
2017-01-10T04:25:02.065Z,72.8
2017-01-10T04:26:02.076Z,73.18
2017-01-10T04:27:02.087Z,73.27
2017-01-10T04:28:02.096Z,73.27
2017-01-10T04:29:02.112Z,73.37
2017-01-10T04:30:02.119Z,73.18
2017-01-10T04:31:02.125Z,72.99
2017-01-10T04:32:02.138Z,73.08
2017-01-10T04:33:02.153Z,72.71
2017-01-10T04:34:02.160Z,72.89
2017-01-10T04:35:02.171Z,73.46
2017-01-10T04:36:02.178Z,73.18
2017-01-10T04:37:02.190Z,73.14
2017-01-10T04:38:02.199Z,73.37
2017-01-10T04:39:02.214Z,73.56
2017-01-10T04:40:02.221Z,73.18
2017-01-10T04:41:02.231Z,73.18
2017-01-10T04:42:02.238Z,72.89
2017-01-10T04:43:02.252Z,72.89
2017-01-10T04:44:02.267Z,73.18
2017-01-10T04:45:02.272Z,73.14
2017-01-10T04:46:02.287Z,72.99
2017-01-10T04:47:02.293Z,72.99
2017-01-10T04:48:02.308Z,72.89
2017-01-10T04:49:02.316Z,73.24
2017-01-10T04:50:02.334Z,72.71
2017-01-10T04:51:02.333Z,72.71
2017-01-10T04:52:02.348Z,73.24
2017-01-10T04:53:02.356Z,73.24
2017-01-10T04:54:02.366Z,73.37
2017-01-10T04:55:02.378Z,72.77
2017-01-10T04:56:02.386Z,73.18
2017-01-10T04:57:02.400Z,73.27
2017-01-10T04:58:02.413Z,73.43
2017-01-10T04:59:02.420Z,72.8
2017-01-10T05:00:02.429Z,72.77
2017-01-10T05:01:02.440Z,72.67
2017-01-10T05:02:02.454Z,72.71
2017-01-10T05:03:02.461Z,72.57
2017-01-10T05:04:02.498Z,72.57
2017-01-10T05:05:02.486Z,72.57
2017-01-10T05:06:02.513Z,72.57
2017-01-10T05:07:02.503Z,72.67
2017-01-10T05:08:02.516Z,73.37
2017-01-10T05:09:02.526Z,72.67
2017-01-10T05:10:02.532Z,72.77
2017-01-10T05:11:02.545Z,72.77
2017-01-10T05:12:02.565Z,72.67
2017-01-10T05:13:02.565Z,73.43
2017-01-10T05:14:02.594Z,72.67
2017-01-10T05:15:02.589Z,72.57
2017-01-10T05:16:02.597Z,72.86
2017-01-10T05:17:02.608Z,73.24
2017-01-10T05:18:02.616Z,72.96
2017-01-10T05:19:02.626Z,73.14
2017-01-10T05:20:02.655Z,72.86
2017-01-10T05:21:02.647Z,72.77
2017-01-10T05:22:02.672Z,72.57
2017-01-10T05:23:02.671Z,72.67
2017-01-10T05:24:02.682Z,73.43
2017-01-10T05:25:03.088Z,73.43
2017-01-10T05:26:02.702Z,73.43
2017-01-10T05:27:02.708Z,72.57
2017-01-10T05:28:02.726Z,72.48
2017-01-10T05:29:02.728Z,72.77
2017-01-10T05:30:02.754Z,72.86
2017-01-10T05:31:02.753Z,73.14
2017-01-10T05:32:02.762Z,73.33
2017-01-10T05:33:02.775Z,72.57
2017-01-10T05:34:02.800Z,72.48
2017-01-10T05:35:02.790Z,72.48
2017-01-10T05:36:02.817Z,73.71
2017-01-10T05:37:02.811Z,72.86
2017-01-10T05:38:02.827Z,72.67
2017-01-10T05:39:02.835Z,72.77
2017-01-10T05:40:02.841Z,73.43
2017-01-10T05:41:02.852Z,72.86
2017-01-10T05:42:02.879Z,73.43
2017-01-10T05:43:02.876Z,73.33
2017-01-10T05:44:02.892Z,73.14
2017-01-10T05:45:02.893Z,73.24
2017-01-10T05:46:02.900Z,72.77
2017-01-10T05:47:02.915Z,73.33
2017-01-10T05:48:02.931Z,73.14
2017-01-10T05:49:02.945Z,72.67
2017-01-10T05:50:02.953Z,72.77
2017-01-10T05:51:02.970Z,72.57
2017-01-10T05:52:02.966Z,73.05
2017-01-10T05:53:02.975Z,73.24
2017-01-10T05:54:02.988Z,73.14
2017-01-10T05:55:02.996Z,72.86
2017-01-10T05:56:03.012Z,73.14
2017-01-10T05:57:03.019Z,73.05
2017-01-10T05:58:03.049Z,73.52
2017-01-10T05:59:03.037Z,73.43
2017-01-10T06:00:03.053Z,73.46
2017-01-10T06:01:03.057Z,73.75
2017-01-10T06:02:03.067Z,73.61
2017-01-10T06:03:03.077Z,73.37
2017-01-10T06:04:03.101Z,73.37
2017-01-10T06:05:03.101Z,73.46
2017-01-10T06:06:03.120Z,73.56
2017-01-10T06:07:03.116Z,73.61
2017-01-10T06:08:03.131Z,73.56
2017-01-10T06:09:03.141Z,73.18
2017-01-10T06:10:03.157Z,73.46
2017-01-10T06:11:03.160Z,73.27
2017-01-10T06:12:03.176Z,73.46
2017-01-10T06:13:03.182Z,73.37
2017-01-10T06:14:03.203Z,73.27
2017-01-10T06:15:03.201Z,73.27
2017-01-10T06:16:03.212Z,73.08
2017-01-10T06:17:03.222Z,73.37
2017-01-10T06:18:03.243Z,73.46
2017-01-10T06:19:03.243Z,73.37
2017-01-10T06:20:03.271Z,73.46
2017-01-10T06:21:03.264Z,73.33
2017-01-10T06:22:03.289Z,73.33
2017-01-10T06:23:03.282Z,73.75
2017-01-10T06:24:03.295Z,73.52
2017-01-10T06:25:03.305Z,73.56
2017-01-10T06:26:03.323Z,73.75
2017-01-10T06:27:03.328Z,73.75
2017-01-10T06:28:03.356Z,73.65
2017-01-10T06:29:03.351Z,73.75
2017-01-10T06:30:03.372Z,73.71
2017-01-10T06:31:03.365Z,73.37
2017-01-10T06:32:03.377Z,73.37
2017-01-10T06:33:03.388Z,73.37
2017-01-10T06:34:03.414Z,73.18
2017-01-10T06:35:03.408Z,73.27
2017-01-10T06:36:03.434Z,73.27
2017-01-10T06:37:03.430Z,73.65
2017-01-10T06:38:03.440Z,73.27
2017-01-10T06:39:03.450Z,73.46
2017-01-10T06:40:03.463Z,73.84
2017-01-10T06:41:03.473Z,73.65
2017-01-10T06:42:03.493Z,73.37
2017-01-10T06:43:03.495Z,73.37
2017-01-10T06:44:03.512Z,73.37
2017-01-10T06:45:03.513Z,73.37
2017-01-10T06:46:03.524Z,73.24
2017-01-10T06:47:03.529Z,73.37
2017-01-10T06:48:03.542Z,73.27
2017-01-10T06:49:03.553Z,73.37
2017-01-10T06:50:03.600Z,73.37
2017-01-10T06:51:03.575Z,73.18
2017-01-10T06:52:03.588Z,73.24
2017-01-10T06:53:03.595Z,73.46
2017-01-10T06:54:03.607Z,73.94
2017-01-10T06:55:03.614Z,73.37
2017-01-10T06:56:03.624Z,73.37
2017-01-10T06:57:03.634Z,73.14
2017-01-10T06:58:03.646Z,73.37
2017-01-10T06:59:03.656Z,73.46
2017-01-10T07:00:03.666Z,73.37
2017-01-10T07:01:03.678Z,73.37
2017-01-10T07:02:03.686Z,73.27
2017-01-10T07:03:03.696Z,73.37
2017-01-10T07:04:03.705Z,73.33
2017-01-10T07:05:03.716Z,73.27
2017-01-10T07:06:03.727Z,73.27
2017-01-10T07:07:03.740Z,73.94
2017-01-10T07:08:03.750Z,73.18
2017-01-10T07:09:03.755Z,73.27
2017-01-10T07:10:03.768Z,73.46
2017-01-10T07:11:03.780Z,73.37
2017-01-10T07:12:03.792Z,73.56
2017-01-10T07:13:03.802Z,73.43
2017-01-10T07:14:03.812Z,73.94
2017-01-10T07:15:03.821Z,73.65
2017-01-10T07:16:03.828Z,73.27
2017-01-10T07:17:03.839Z,73.18
2017-01-10T07:18:03.850Z,73.37
2017-01-10T07:19:03.863Z,73.37
2017-01-10T07:20:03.871Z,73.37
2017-01-10T07:21:03.882Z,73.37
2017-01-10T07:22:03.892Z,73.75
2017-01-10T07:23:03.902Z,73.37
2017-01-10T07:24:03.913Z,73.37
2017-01-10T07:25:03.927Z,73.37
2017-01-10T07:26:03.942Z,73.27
2017-01-10T07:27:03.966Z,73.18
2017-01-10T07:28:03.955Z,73.37
2017-01-10T07:29:03.963Z,73.37
2017-01-10T07:30:03.974Z,73.27
2017-01-10T07:31:03.981Z,73.65
2017-01-10T07:32:03.999Z,73.75
2017-01-10T07:33:04.006Z,73.56
2017-01-10T07:34:04.016Z,73.75
2017-01-10T07:35:04.026Z,73.56
2017-01-10T07:36:04.036Z,73.65
2017-01-10T07:37:04.045Z,73.18
2017-01-10T07:38:04.054Z,73.27
2017-01-10T07:39:04.066Z,73.46
2017-01-10T07:40:04.080Z,73.27
2017-01-10T07:41:04.084Z,73.18
2017-01-10T07:42:04.115Z,73.65
2017-01-10T07:43:04.110Z,73.27
2017-01-10T07:44:04.118Z,73.65
2017-01-10T07:45:04.130Z,73.56
2017-01-10T07:46:04.140Z,73.56
2017-01-10T07:47:04.153Z,73.08
2017-01-10T07:48:04.160Z,72.8
2017-01-10T07:49:04.168Z,72.8
2017-01-10T07:50:04.184Z,73.46
2017-01-10T07:51:04.191Z,72.8
2017-01-10T07:52:04.203Z,72.89
2017-01-10T07:53:04.211Z,73.05
2017-01-10T07:54:04.223Z,73.37
2017-01-10T07:55:04.233Z,72.71
2017-01-10T07:56:04.244Z,72.89
2017-01-10T07:57:04.253Z,73.37
2017-01-10T07:58:04.264Z,72.8
2017-01-10T07:59:04.276Z,73.18
2017-01-10T08:00:04.396Z,73.08
2017-01-10T08:01:04.294Z,73.27
2017-01-10T08:02:04.308Z,73.46
2017-01-10T08:03:04.314Z,72.89
2017-01-10T08:04:04.327Z,73.08
2017-01-10T08:05:04.338Z,72.61
2017-01-10T08:06:04.344Z,73.46
2017-01-10T08:07:04.358Z,72.99
2017-01-10T08:08:04.367Z,73.27
2017-01-10T08:09:04.380Z,72.99
2017-01-10T08:10:04.393Z,72.89
2017-01-10T08:11:04.398Z,72.8
2017-01-10T08:12:04.412Z,72.99
2017-01-10T08:13:04.418Z,72.89
2017-01-10T08:14:04.429Z,73.37
2017-01-10T08:15:04.439Z,73.46
2017-01-10T08:16:04.449Z,72.89
2017-01-10T08:17:04.459Z,72.89
2017-01-10T08:18:04.469Z,72.99
2017-01-10T08:19:04.480Z,72.71
2017-01-10T08:20:04.488Z,73.37
2017-01-10T08:21:04.505Z,72.8
2017-01-10T08:22:04.512Z,73.37
2017-01-10T08:23:04.519Z,72.89
2017-01-10T08:24:04.533Z,72.71
2017-01-10T08:25:04.543Z,72.33
2017-01-10T08:26:04.554Z,72.71
2017-01-10T08:27:04.568Z,72.61
2017-01-10T08:28:04.572Z,72.71
2017-01-10T08:29:04.589Z,72.61
2017-01-10T08:30:04.593Z,72.71
2017-01-10T08:31:04.604Z,72.42
2017-01-10T08:32:04.614Z,72.42
2017-01-10T08:33:04.624Z,72.52
2017-01-10T08:34:04.638Z,72.52
2017-01-10T08:35:04.645Z,72.8
2017-01-10T08:36:04.655Z,72.52
2017-01-10T08:37:04.665Z,72.14
2017-01-10T08:38:04.680Z,72.14
2017-01-10T08:39:04.687Z,72.14
2017-01-10T08:40:04.694Z,72.04
2017-01-10T08:41:04.708Z,72.8
2017-01-10T08:42:04.719Z,72.61
2017-01-10T08:43:04.730Z,72.52
2017-01-10T08:44:04.737Z,72.52
2017-01-10T08:45:04.751Z,72.61
2017-01-10T08:46:04.759Z,72.52
2017-01-10T08:47:04.772Z,72.23
2017-01-10T08:48:04.781Z,72.33
2017-01-10T08:49:04.791Z,72.71
2017-01-10T08:50:04.802Z,73.18
2017-01-10T08:51:04.812Z,72.42
2017-01-10T08:52:04.822Z,72.8
2017-01-10T08:53:04.835Z,72.8
2017-01-10T08:54:04.842Z,72.04
2017-01-10T08:55:04.853Z,72.8
2017-01-10T08:56:04.864Z,72.33
2017-01-10T08:57:04.872Z,72.71
2017-01-10T08:58:04.883Z,72.61
2017-01-10T08:59:04.896Z,72.42
2017-01-10T09:00:04.907Z,72.61
2017-01-10T09:01:04.915Z,72.71
2017-01-10T09:02:04.930Z,72.04
2017-01-10T09:03:04.937Z,72.52
2017-01-10T09:04:04.954Z,71.85
2017-01-10T09:05:04.953Z,71.95
2017-01-10T09:06:04.970Z,71.85
2017-01-10T09:07:04.981Z,71.95
2017-01-10T09:08:05.020Z,72.33
2017-01-10T09:09:05.023Z,71.95
2017-01-10T09:10:05.013Z,71.95
2017-01-10T09:11:05.022Z,72.14
2017-01-10T09:12:05.032Z,71.95
2017-01-10T09:13:05.040Z,71.57
2017-01-10T09:14:05.054Z,71.38
2017-01-10T09:15:05.065Z,71.47
2017-01-10T09:16:05.082Z,71.38
2017-01-10T09:17:05.083Z,71.38
2017-01-10T09:18:05.093Z,71.66
2017-01-10T09:19:05.106Z,71.38
2017-01-10T09:20:05.116Z,71.28
2017-01-10T09:21:05.132Z,71.19
2017-01-10T09:22:05.140Z,71.47
2017-01-10T09:23:05.145Z,71.47
2017-01-10T09:24:05.161Z,71
2017-01-10T09:25:05.167Z,71.38
2017-01-10T09:26:05.182Z,71
2017-01-10T09:27:05.188Z,71.19
2017-01-10T09:28:05.202Z,71.09
2017-01-10T09:29:05.217Z,70.9
2017-01-10T09:30:05.222Z,70.9
2017-01-10T09:31:05.283Z,70.81
2017-01-10T09:32:05.246Z,70.81
2017-01-10T09:33:05.259Z,70.9
2017-01-10T09:34:05.265Z,70.9
2017-01-10T09:35:05.273Z,70.53
2017-01-10T09:36:05.287Z,70.9
2017-01-10T09:37:05.296Z,70.9
2017-01-10T09:38:05.304Z,71
2017-01-10T09:39:05.320Z,70.62
2017-01-10T09:40:05.332Z,71
2017-01-10T09:41:05.338Z,70.9
2017-01-10T09:42:05.349Z,70.9
2017-01-10T09:43:05.356Z,70.9
2017-01-10T09:44:05.368Z,70.43
2017-01-10T09:45:05.386Z,70.43
2017-01-10T09:46:05.388Z,70.62
2017-01-10T09:47:05.403Z,70.15
2017-01-10T09:48:05.415Z,70.05
2017-01-10T09:49:05.421Z,69.96
2017-01-10T09:50:05.437Z,69.96
2017-01-10T09:51:05.445Z,70.34
2017-01-10T09:52:05.471Z,70.05
2017-01-10T09:53:05.464Z,70.43
2017-01-10T09:54:05.499Z,70.34
2017-01-10T09:55:05.484Z,69.96
2017-01-10T09:56:05.495Z,70.34
2017-01-10T09:57:05.506Z,69.96
2017-01-10T09:58:05.513Z,70.05
2017-01-10T09:59:05.527Z,69.77
2017-01-10T10:00:05.541Z,69.86
2017-01-10T10:01:05.548Z,70.15
2017-01-10T10:02:05.556Z,70.43
2017-01-10T10:03:05.566Z,70.43
2017-01-10T10:04:05.576Z,69.96
2017-01-10T10:05:05.587Z,69.67
2017-01-10T10:06:05.600Z,70.05
2017-01-10T10:07:05.611Z,70.05
2017-01-10T10:08:05.626Z,69.86
2017-01-10T10:09:05.632Z,69.96
2017-01-10T10:10:05.645Z,70.05
2017-01-10T10:11:05.651Z,69.29
2017-01-10T10:12:05.663Z,69.67
2017-01-10T10:13:05.669Z,69.57
2017-01-10T10:14:05.682Z,70.05
2017-01-10T10:15:05.693Z,70.05
2017-01-10T10:16:05.701Z,70.15
2017-01-10T10:17:05.711Z,69.77
2017-01-10T10:18:05.722Z,69.57
2017-01-10T10:19:05.742Z,69.86
2017-01-10T10:20:05.743Z,69.67
2017-01-10T10:21:05.752Z,69.29
2017-01-10T10:22:05.762Z,69.61
2017-01-10T10:23:05.779Z,69.29
2017-01-10T10:24:05.786Z,69.57
2017-01-10T10:25:05.795Z,69.29
2017-01-10T10:26:05.809Z,69.01
2017-01-10T10:27:05.817Z,68.82
2017-01-10T10:28:05.828Z,69.1
2017-01-10T10:29:05.837Z,68.73
2017-01-10T10:30:05.852Z,68.85
2017-01-10T10:31:05.859Z,68.76
2017-01-10T10:32:05.876Z,69.04
2017-01-10T10:33:05.882Z,69.04
2017-01-10T10:34:05.902Z,69.33
2017-01-10T10:35:05.901Z,69.42
2017-01-10T10:36:05.912Z,69.52
2017-01-10T10:37:05.922Z,70.18
2017-01-10T10:38:05.930Z,69.71
2017-01-10T10:39:05.939Z,69.71
2017-01-10T10:40:05.952Z,69.42
2017-01-10T10:41:05.962Z,69.61
2017-01-10T10:42:05.975Z,69.61
2017-01-10T10:43:05.983Z,69.23
2017-01-10T10:44:05.992Z,69.33
2017-01-10T10:45:06.002Z,69.13
2017-01-10T10:46:06.015Z,68.95
2017-01-10T10:47:06.021Z,69.23
2017-01-10T10:48:06.034Z,69.04
2017-01-10T10:49:06.044Z,69.04
2017-01-10T10:50:06.064Z,68.76
2017-01-10T10:51:06.066Z,68.66
2017-01-10T10:52:06.079Z,68.29
2017-01-10T10:53:06.090Z,68.57
2017-01-10T10:54:06.098Z,68.29
2017-01-10T10:55:06.107Z,68.29
2017-01-10T10:56:06.120Z,69.04
2017-01-10T10:57:06.130Z,69.13
2017-01-10T10:58:06.156Z,68.38
2017-01-10T10:59:06.151Z,68.57
2017-01-10T11:00:06.161Z,68.1
2017-01-10T11:01:06.170Z,68.19
2017-01-10T11:02:06.182Z,68.38
2017-01-10T11:03:06.191Z,68.29
2017-01-10T11:04:06.205Z,68.38
2017-01-10T11:05:06.216Z,68
2017-01-10T11:06:06.222Z,68.1
2017-01-10T11:07:06.238Z,68.29
2017-01-10T11:08:06.242Z,68.19
2017-01-10T11:09:06.259Z,68.29
2017-01-10T11:10:06.265Z,68.85
2017-01-10T11:11:06.276Z,68.29
2017-01-10T11:12:06.286Z,67.9
2017-01-10T11:13:06.303Z,68
2017-01-10T11:14:06.311Z,67.33
2017-01-10T11:15:06.322Z,67.52
2017-01-10T11:16:06.330Z,67.52
2017-01-10T11:17:06.342Z,67.71
2017-01-10T11:18:06.353Z,67.52
2017-01-10T11:19:06.364Z,67.81
2017-01-10T11:20:06.372Z,67.33
2017-01-10T11:21:06.386Z,67.71
2017-01-10T11:22:06.393Z,67.62
2017-01-10T11:23:06.404Z,67.33
2017-01-10T11:24:06.414Z,67.52
2017-01-10T11:25:06.434Z,67.62
2017-01-10T11:26:06.437Z,67.52
2017-01-10T11:27:06.448Z,67.9
2017-01-10T11:28:06.459Z,67.81
2017-01-10T11:29:06.471Z,68
2017-01-10T11:30:06.479Z,67.71
2017-01-10T11:31:06.489Z,67.9
2017-01-10T11:32:06.506Z,67.81
2017-01-10T11:33:06.514Z,67.62
2017-01-10T11:34:06.529Z,67.33
2017-01-10T11:35:06.538Z,67.52
2017-01-10T11:36:06.548Z,67.52
2017-01-10T11:37:06.558Z,67.52
2017-01-10T11:38:06.572Z,67.43
2017-01-10T11:39:06.585Z,67.33
2017-01-10T11:40:06.594Z,67.33
2017-01-10T11:41:06.604Z,67.52
2017-01-10T11:42:06.614Z,67.43
2017-01-10T11:43:06.626Z,67.81
2017-01-10T11:44:06.635Z,67.52
2017-01-10T11:45:06.647Z,67.52
2017-01-10T11:46:06.658Z,67.14
2017-01-10T11:47:06.668Z,67.33
2017-01-10T11:48:06.678Z,66.86
2017-01-10T11:49:06.691Z,66.86
2017-01-10T11:50:06.702Z,66.67
2017-01-10T11:51:06.716Z,66.86
2017-01-10T11:52:06.722Z,67.52
2017-01-10T11:53:06.732Z,66.96
2017-01-10T11:54:06.748Z,66.48
2017-01-10T11:55:06.759Z,66.58
2017-01-10T11:56:06.766Z,66.86
2017-01-10T11:57:06.781Z,67.05
2017-01-10T11:58:06.796Z,66.96
2017-01-10T11:59:06.798Z,66.86
2017-01-10T12:00:06.812Z,66.48
2017-01-10T12:01:06.834Z,67.33
2017-01-10T12:02:06.836Z,66.96
2017-01-10T12:03:06.868Z,67.43
2017-01-10T12:04:06.863Z,67.33
2017-01-10T12:05:06.869Z,67.43
2017-01-10T12:06:06.882Z,67.05
2017-01-10T12:07:06.886Z,67.14
2017-01-10T12:08:06.897Z,66.96
2017-01-10T12:09:06.910Z,67.24
2017-01-10T12:10:06.925Z,66.58
2017-01-10T12:11:06.932Z,67.05
2017-01-10T12:12:06.944Z,66.58
2017-01-10T12:13:06.954Z,66.86
2017-01-10T12:14:06.965Z,66.96
2017-01-10T12:15:06.976Z,67.71
2017-01-10T12:16:06.989Z,67.33
2017-01-10T12:17:07.000Z,66.89
2017-01-10T12:18:07.007Z,67.05
2017-01-10T12:19:07.021Z,67.05
2017-01-10T12:20:07.036Z,67.05
2017-01-10T12:21:07.043Z,67.05
2017-01-10T12:22:07.057Z,66.48
2017-01-10T12:23:07.066Z,66.61
2017-01-10T12:24:07.075Z,66.67
2017-01-10T12:25:07.092Z,67.05
2017-01-10T12:26:07.101Z,67.05
2017-01-10T12:27:07.107Z,67.62
2017-01-10T12:28:07.121Z,66.77
2017-01-10T12:29:07.136Z,66.71
2017-01-10T12:30:07.144Z,66.61
2017-01-10T12:31:07.154Z,67.08
2017-01-10T12:32:07.169Z,67.18
2017-01-10T12:33:07.178Z,67.33
2017-01-10T12:34:07.192Z,67.37
2017-01-10T12:35:07.199Z,67.08
2017-01-10T12:36:07.213Z,66.96
2017-01-10T12:37:07.221Z,67.08
2017-01-10T12:38:07.232Z,66.67
2017-01-10T12:39:07.240Z,67.27
2017-01-10T12:40:07.259Z,66.48
2017-01-10T12:41:07.267Z,66.67
2017-01-10T12:42:07.282Z,66.58
2017-01-10T12:43:07.289Z,66.58
2017-01-10T12:44:07.306Z,66.67
2017-01-10T12:45:07.317Z,67.05
2017-01-10T12:46:07.322Z,66.96
2017-01-10T12:47:07.336Z,66.99
2017-01-10T12:48:07.344Z,66.58
2017-01-10T12:49:07.358Z,67.08
2017-01-10T12:50:07.370Z,66.77
2017-01-10T12:51:07.378Z,66.86
2017-01-10T12:52:07.397Z,67.05
2017-01-10T12:53:07.402Z,66.67
2017-01-10T12:54:07.414Z,66.67
2017-01-10T12:55:07.425Z,66.61